USTS Kennedy — KVMU — position and weather

sailwx.info

Track history (hours):
 
Tides and Currents Weather Stations Pressure Air Temp Water Temp Dewpoint Dewpoint Depression Visibility Wind Speed Wind Dir Waves Ship Positions

USTS Kennedy (United States)

Training ship of Massachusetts Maritime Academy. Ex Cape Bon, ex Velma Lykes, ex Enterprise.

Ship's website: http://www.maritime.edu/

Owner: Massachusetts Maritime Academy, Buzzards Bay, MA. More information available from US FCC via Universal Licensing System and Coast Guard Vessel Documentation Center.

Last reported at 2016-Jun-13 04:12 UTC. Time now 2016-Jul-02 00:24 UTC.
Position N 42°08' W 070°31'.
Warning: this ship's position is 18 days out of date.

Type: Ship. MMSI: 338919000.

Date/timePositionNaut miles runAvg speedWind from/ knotsBaromVisibWave heightAir tempDewpointWater temp
2016-Jun-13 04:12N 42°08' W 070°31'18 4.9
2016-Jun-13 00:30N 42°15' W 070°09'5 5.3
2016-Jun-12 23:34N 42°17' W 070°15'7 6.5
2016-Jun-12 22:32N 42°18' W 070°24'9 8.6
2016-Jun-12 21:28N 42°19' W 070°36'1011.6
2016-Jun-12 20:33N 42°23' W 070°49'10 9.6
2016-Jun-12 19:33N 42°21' W 071°01'1 0.7
2016-Jun-12 18:33N 42°21' W 071°02'3 2.8
2016-Jun-12 17:33N 42°20' W 070°59'2 2.2
2016-Jun-12 16:33N 42°21' W 071°01'0 0.0
2016-Jun-12 15:33N 42°21' W 071°01'0 0.0
2016-Jun-12 14:33N 42°21' W 071°01'0 0.0
2016-Jun-12 13:33N 42°21' W 071°01'0 0.0
2016-Jun-12 12:33N 42°21' W 071°01'0 0.0
2016-Jun-12 11:33N 42°21' W 071°01'0 0.0
2016-Jun-12 10:33N 42°21' W 071°01'0 0.0
2016-Jun-12 09:33N 42°21' W 071°01'0 0.0
2016-Jun-12 08:33N 42°21' W 071°01'0 0.0
2016-Jun-12 07:33N 42°21' W 071°01'0 0.0
2016-Jun-12 06:33N 42°21' W 071°01'0 0.0
2016-Jun-12 04:33N 42°21' W 071°01'0 0.0
2016-Jun-12 03:33N 42°21' W 071°01'0 0.0
2016-Jun-12 02:33N 42°21' W 071°01'0 0.0
2016-Jun-12 01:33N 42°21' W 071°01'0 0.0
2016-Jun-12 00:33N 42°21' W 071°01'0 0.0
2016-Jun-11 23:33N 42°21' W 071°01'0 0.0
2016-Jun-11 22:33N 42°21' W 071°01'0 0.0
2016-Jun-11 21:33N 42°21' W 071°01'0 0.0
2016-Jun-11 20:33N 42°21' W 071°01'0 0.0
2016-Jun-11 19:33N 42°21' W 071°01'0 0.0
2016-Jun-11 19:00N 42°21' W 071°01'0 0.0
2016-Jun-11 18:33N 42°21' W 071°01'0 0.0
2016-Jun-11 17:33N 42°21' W 071°01'0 0.0
2016-Jun-11 16:33N 42°21' W 071°01'0 0.0
2016-Jun-11 15:33N 42°21' W 071°01'0 0.0
2016-Jun-11 14:33N 42°21' W 071°01'0 0.0
2016-Jun-11 13:33N 42°21' W 071°01'0 0.0
2016-Jun-11 12:33N 42°21' W 071°01'0 0.0
2016-Jun-11 11:33N 42°21' W 071°01'0 0.0
2016-Jun-11 10:33N 42°21' W 071°01'0 0.0
2016-Jun-11 09:33N 42°21' W 071°01'0 0.0
2016-Jun-11 08:33N 42°21' W 071°01'0 0.0
2016-Jun-11 07:33N 42°21' W 071°01'0 0.0
2016-Jun-11 06:33N 42°21' W 071°01'0 0.0
2016-Jun-11 05:33N 42°21' W 071°01'0 0.0
2016-Jun-11 04:33N 42°21' W 071°01'0 0.0
2016-Jun-11 03:33N 42°21' W 071°01'0 0.0
2016-Jun-11 02:33N 42°21' W 071°01'0 0.0
2016-Jun-11 01:33N 42°21' W 071°01'0 0.0
2016-Jun-11 00:33N 42°21' W 071°01'0 0.0
2016-Jun-10 23:33N 42°21' W 071°01'0 0.0
2016-Jun-10 22:33N 42°21' W 071°01'0 0.0
2016-Jun-10 21:33N 42°21' W 071°01'0 0.0
2016-Jun-10 20:33N 42°21' W 071°01'0 0.0
2016-Jun-10 19:33N 42°21' W 071°01'0 0.0
2016-Jun-10 18:33N 42°21' W 071°01'0 0.0
2016-Jun-10 17:33N 42°21' W 071°01'0 0.0
2016-Jun-10 16:33N 42°21' W 071°01'0 0.0
2016-Jun-10 15:33N 42°21' W 071°01'0 0.0
2016-Jun-10 14:30N 42°21' W 071°01'0 0.0
2016-Jun-10 13:33N 42°21' W 071°01'0 0.0
2016-Jun-10 12:33N 42°21' W 071°01'0 0.0
2016-Jun-10 11:33N 42°21' W 071°01'0 0.0
2016-Jun-10 10:33N 42°21' W 071°01'0 0.0
2016-Jun-10 09:33N 42°21' W 071°01'0 0.0
2016-Jun-10 08:33N 42°21' W 071°01'0 0.0
2016-Jun-10 07:33N 42°21' W 071°01'0 0.0
2016-Jun-10 06:33N 42°21' W 071°01'0 0.0
2016-Jun-10 05:33N 42°21' W 071°01'0 0.0
2016-Jun-10 04:33N 42°21' W 071°01'0 0.0
2016-Jun-10 03:33N 42°21' W 071°01'0 0.0
2016-Jun-10 02:33N 42°21' W 071°01'0 0.0
2016-Jun-10 01:33N 42°21' W 071°01'0 0.0
2016-Jun-10 00:33N 42°21' W 071°01'3 2.6
2016-Jun-09 23:33N 42°20' W 070°58'8 8.2
2016-Jun-09 22:33N 42°22' W 070°48'9 8.5
2016-Jun-09 21:33N 42°17' W 070°39'  
2016-Jun-05 14:19N 41°44' W 070°38'0 0.0
2016-Jun-05 12:04N 41°44' W 070°38'0 0.0
2016-Jun-05 11:31N 41°44' W 070°38'0 0.0
2016-Jun-05 10:23N 41°44' W 070°38'0 0.0
2016-Jun-05 09:28N 41°44' W 070°38'0 0.0
2016-Jun-05 08:32N 41°44' W 070°38'0 0.0
2016-Jun-05 07:23N 41°44' W 070°38'0 0.0
2016-Jun-05 06:31N 41°44' W 070°38'0 0.0
2016-Jun-05 05:28N 41°44' W 070°38'0 0.0
2016-Jun-05 04:22N 41°44' W 070°38'0 0.0
2016-Jun-05 03:28N 41°44' W 070°38'0 0.0
2016-Jun-05 02:31N 41°44' W 070°38'0 0.0
2016-Jun-05 01:31N 41°44' W 070°38'0 0.0
2016-Jun-05 00:31N 41°44' W 070°38'0 0.0
2016-Jun-04 22:19N 41°44' W 070°38'0 0.0
2016-Jun-04 21:31N 41°44' W 070°38'0 0.0
2016-Jun-04 20:22N 41°44' W 070°38'  
Track history (hours):
 
Tides and Currents Weather Stations Pressure Air Temp Water Temp Dewpoint Dewpoint Depression Visibility Wind Speed Wind Dir Waves Ship Positions

USTS Kennedy (United States)

Training ship of Massachusetts Maritime Academy. Ex Cape Bon, ex Velma Lykes, ex Enterprise.

Ship's website: http://www.maritime.edu/

Owner: Massachusetts Maritime Academy, Buzzards Bay, MA. More information available from US FCC via Universal Licensing System and Coast Guard Vessel Documentation Center.

Last reported at 2016-Jun-13 04:12 UTC. Time now 2016-Jul-02 00:24 UTC.
Position N 42°08' W 070°31'.
Warning: this ship's position is 18 days out of date.

Type: Ship. MMSI: 338919000.

Date/timePositionNaut miles runAvg speedWind from/ knotsBaromVisibWave heightAir tempDewpointWater temp
2016-Jun-13 04:12N 42°08' W 070°31'18 4.9
2016-Jun-13 00:30N 42°15' W 070°09'5 5.3
2016-Jun-12 23:34N 42°17' W 070°15'7 6.5
2016-Jun-12 22:32N 42°18' W 070°24'9 8.6
2016-Jun-12 21:28N 42°19' W 070°36'1011.6
2016-Jun-12 20:33N 42°23' W 070°49'10 9.6
2016-Jun-12 19:33N 42°21' W 071°01'1 0.7
2016-Jun-12 18:33N 42°21' W 071°02'3 2.8
2016-Jun-12 17:33N 42°20' W 070°59'2 2.2
2016-Jun-12 16:33N 42°21' W 071°01'0 0.0
2016-Jun-12 15:33N 42°21' W 071°01'0 0.0
2016-Jun-12 14:33N 42°21' W 071°01'0 0.0
2016-Jun-12 13:33N 42°21' W 071°01'0 0.0
2016-Jun-12 12:33N 42°21' W 071°01'0 0.0
2016-Jun-12 11:33N 42°21' W 071°01'0 0.0
2016-Jun-12 10:33N 42°21' W 071°01'0 0.0
2016-Jun-12 09:33N 42°21' W 071°01'0 0.0
2016-Jun-12 08:33N 42°21' W 071°01'0 0.0
2016-Jun-12 07:33N 42°21' W 071°01'0 0.0
2016-Jun-12 06:33N 42°21' W 071°01'0 0.0
2016-Jun-12 04:33N 42°21' W 071°01'0 0.0
2016-Jun-12 03:33N 42°21' W 071°01'0 0.0
2016-Jun-12 02:33N 42°21' W 071°01'0 0.0
2016-Jun-12 01:33N 42°21' W 071°01'0 0.0
2016-Jun-12 00:33N 42°21' W 071°01'0 0.0
2016-Jun-11 23:33N 42°21' W 071°01'0 0.0
2016-Jun-11 22:33N 42°21' W 071°01'0 0.0
2016-Jun-11 21:33N 42°21' W 071°01'0 0.0
2016-Jun-11 20:33N 42°21' W 071°01'0 0.0
2016-Jun-11 19:33N 42°21' W 071°01'0 0.0
2016-Jun-11 19:00N 42°21' W 071°01'0 0.0
2016-Jun-11 18:33N 42°21' W 071°01'0 0.0
2016-Jun-11 17:33N 42°21' W 071°01'0 0.0
2016-Jun-11 16:33N 42°21' W 071°01'0 0.0
2016-Jun-11 15:33N 42°21' W 071°01'0 0.0
2016-Jun-11 14:33N 42°21' W 071°01'0 0.0
2016-Jun-11 13:33N 42°21' W 071°01'0 0.0
2016-Jun-11 12:33N 42°21' W 071°01'0 0.0
2016-Jun-11 11:33N 42°21' W 071°01'0 0.0
2016-Jun-11 10:33N 42°21' W 071°01'0 0.0
2016-Jun-11 09:33N 42°21' W 071°01'0 0.0
2016-Jun-11 08:33N 42°21' W 071°01'0 0.0
2016-Jun-11 07:33N 42°21' W 071°01'0 0.0
2016-Jun-11 06:33N 42°21' W 071°01'0 0.0
2016-Jun-11 05:33N 42°21' W 071°01'0 0.0
2016-Jun-11 04:33N 42°21' W 071°01'0 0.0
2016-Jun-11 03:33N 42°21' W 071°01'0 0.0
2016-Jun-11 02:33N 42°21' W 071°01'0 0.0
2016-Jun-11 01:33N 42°21' W 071°01'0 0.0
2016-Jun-11 00:33N 42°21' W 071°01'0 0.0
2016-Jun-10 23:33N 42°21' W 071°01'0 0.0
2016-Jun-10 22:33N 42°21' W 071°01'0 0.0
2016-Jun-10 21:33N 42°21' W 071°01'0 0.0
2016-Jun-10 20:33N 42°21' W 071°01'0 0.0
2016-Jun-10 19:33N 42°21' W 071°01'0 0.0
2016-Jun-10 18:33N 42°21' W 071°01'0 0.0
2016-Jun-10 17:33N 42°21' W 071°01'0 0.0
2016-Jun-10 16:33N 42°21' W 071°01'0 0.0
2016-Jun-10 15:33N 42°21' W 071°01'0 0.0
2016-Jun-10 14:30N 42°21' W 071°01'0 0.0
2016-Jun-10 13:33N 42°21' W 071°01'0 0.0
2016-Jun-10 12:33N 42°21' W 071°01'0 0.0
2016-Jun-10 11:33N 42°21' W 071°01'0 0.0
2016-Jun-10 10:33N 42°21' W 071°01'0 0.0
2016-Jun-10 09:33N 42°21' W 071°01'0 0.0
2016-Jun-10 08:33N 42°21' W 071°01'0 0.0
2016-Jun-10 07:33N 42°21' W 071°01'0 0.0
2016-Jun-10 06:33N 42°21' W 071°01'0 0.0
2016-Jun-10 05:33N 42°21' W 071°01'0 0.0
2016-Jun-10 04:33N 42°21' W 071°01'0 0.0
2016-Jun-10 03:33N 42°21' W 071°01'0 0.0
2016-Jun-10 02:33N 42°21' W 071°01'0 0.0
2016-Jun-10 01:33N 42°21' W 071°01'0 0.0
2016-Jun-10 00:33N 42°21' W 071°01'3 2.6
2016-Jun-09 23:33N 42°20' W 070°58'8 8.2
2016-Jun-09 22:33N 42°22' W 070°48'9 8.5
2016-Jun-09 21:33N 42°17' W 070°39'  
2016-Jun-05 14:19N 41°44' W 070°38'0 0.0
2016-Jun-05 12:04N 41°44' W 070°38'0 0.0
2016-Jun-05 11:31N 41°44' W 070°38'0 0.0
2016-Jun-05 10:23N 41°44' W 070°38'0 0.0
2016-Jun-05 09:28N 41°44' W 070°38'0 0.0
2016-Jun-05 08:32N 41°44' W 070°38'0 0.0
2016-Jun-05 07:23N 41°44' W 070°38'0 0.0
2016-Jun-05 06:31N 41°44' W 070°38'0 0.0
2016-Jun-05 05:28N 41°44' W 070°38'0 0.0
2016-Jun-05 04:22N 41°44' W 070°38'0 0.0
2016-Jun-05 03:28N 41°44' W 070°38'0 0.0
2016-Jun-05 02:31N 41°44' W 070°38'0 0.0
2016-Jun-05 01:31N 41°44' W 070°38'0 0.0
2016-Jun-05 00:31N 41°44' W 070°38'0 0.0
2016-Jun-04 22:19N 41°44' W 070°38'0 0.0
2016-Jun-04 21:31N 41°44' W 070°38'0 0.0
2016-Jun-04 20:22N 41°44' W 070°38'  

Dump ship's entire track history